Malmo, Sweden

3:16 AM CEST on September 03, 2015 (GMT +0200)
Oxie, Kaeglinge, Malmoe, Oeresund. | | Change Station
CLOSE
Current Station
Personal Weather Station
Location: Malmö, SKåNE LäN
Elevation: 164 ft
Nearby Weather Stations

Elev 164 ft 55.54 °N, 13.08 °E | Updated 9 seconds ago

Clear
Clear
54.3 °F
Feels Like 54.3 °F
N
0.0
Wind Variable Wind from SSE
Gusts 0.0 mph

Today
High -- | Low -- °F
--% Chance of Precip.
Yesterday
High -- | Low -- °F
Precip. -- in
6:15 AM 7:57 PM
Waning Gibbous, 75% visible
Pressure 29.92 in
Visibility -9999.0 miles
Clouds
Dew Point 52 °F
Humidity 93%
Rainfall 0.00 in
Snow Depth Not available.
UV 0.0 out of 12
Pollen Not available.
Air Quality Not available.
Flu Activity Not available.
METAR ESMS 030050Z 22006KT CAVOK 10/09 Q1013
Pressure 29.92 in
Visibility -9999.0 miles
Clouds
Dew Point 52 °F
Humidity 93%
Rainfall 0.00 in
Snow Depth Not available.
UV 0.0 out of 12
Pollen Not available.
Air Quality Not available.
Flu Activity Not available.
METAR ESMS 030050Z 22006KT CAVOK 10/09 Q1013

10-Day Weather Forecast

×

Almanac

Astronomy

Sep. 03, 2015 Rise Set
Actual Time
Civil Twilight
Nautical Twilight
Astronomical Twilight
Moon
Length of Visible Light
Length of Day
Tomorrow will be .
, % of the Moon is Illuminated

Today's Extremes

Country Highs Country Lows

Community

WunderPhotos

Upload Photos

1,851,863 photos uploaded!

WunderBlogs® & News

Nearby

Air Quality

  Air Quality AQ Index Pollutant
Not available.

Snow Depth

Station Depth Elevation

Earthquake Activity

City Distance Mag. Time & Date
Minimum magnitude displayed is 2.5.

Coastal Water Temperatures

Place Temperature

Stations

Nearby Weather Stations

Station Location Temp. Windchill Dew Point Humidity Wind Precip. Elev Updated Type